sensor_id;sensor_type;location;lat;lon;timestamp;temperature;humidity
814;DHT22;389;48.710;9.392;2023-12-07T00:01:06;3.20;99.90
814;DHT22;389;48.710;9.392;2023-12-07T00:03:31;3.10;99.90
814;DHT22;389;48.710;9.392;2023-12-07T00:05:57;3.20;99.90
814;DHT22;389;48.710;9.392;2023-12-07T00:08:22;3.20;99.90
814;DHT22;389;48.710;9.392;2023-12-07T00:10:48;3.20;99.90
814;DHT22;389;48.710;9.392;2023-12-07T00:13:14;3.20;99.90
814;DHT22;389;48.710;9.392;2023-12-07T00:15:39;3.20;99.90
814;DHT22;389;48.710;9.392;2023-12-07T00:18:05;3.30;99.90
814;DHT22;389;48.710;9.392;2023-12-07T00:20:31;3.30;99.90
814;DHT22;389;48.710;9.392;2023-12-07T00:22:56;3.30;99.90
814;DHT22;389;48.710;9.392;2023-12-07T00:25:22;3.30;99.90
814;DHT22;389;48.710;9.392;2023-12-07T00:27:48;3.30;99.90
814;DHT22;389;48.710;9.392;2023-12-07T00:30:14;3.30;99.90
814;DHT22;389;48.710;9.392;2023-12-07T00:32:40;3.30;99.90
814;DHT22;389;48.710;9.392;2023-12-07T00:35:09;3.30;99.90
814;DHT22;389;48.710;9.392;2023-12-07T00:37:35;3.30;99.90
814;DHT22;389;48.710;9.392;2023-12-07T00:40:01;3.30;99.90
814;DHT22;389;48.710;9.392;2023-12-07T00:42:27;3.30;99.90
814;DHT22;389;48.710;9.392;2023-12-07T00:44:53;3.30;99.90
814;DHT22;389;48.710;9.392;2023-12-07T00:47:18;3.30;99.90
814;DHT22;389;48.710;9.392;2023-12-07T00:49:44;3.20;99.90
814;DHT22;389;48.710;9.392;2023-12-07T00:52:10;3.30;99.90
814;DHT22;389;48.710;9.392;2023-12-07T00:54:35;3.30;99.90
814;DHT22;389;48.710;9.392;2023-12-07T00:57:02;3.30;99.90
814;DHT22;389;48.710;9.392;2023-12-07T00:59:27;3.30;99.90
814;DHT22;389;48.710;9.392;2023-12-07T01:02:05;3.30;99.90
814;DHT22;389;48.710;9.392;2023-12-07T01:04:30;3.30;99.90
814;DHT22;389;48.710;9.392;2023-12-07T01:06:56;3.30;99.90
814;DHT22;389;48.710;9.392;2023-12-07T01:09:22;3.30;99.90
814;DHT22;389;48.710;9.392;2023-12-07T01:11:48;3.30;99.90
814;DHT22;389;48.710;9.392;2023-12-07T01:14:14;3.30;99.90
814;DHT22;389;48.710;9.392;2023-12-07T01:16:40;3.30;99.90
814;DHT22;389;48.710;9.392;2023-12-07T01:19:05;3.30;99.90
814;DHT22;389;48.710;9.392;2023-12-07T01:21:32;3.40;99.90
814;DHT22;389;48.710;9.392;2023-12-07T01:23:58;3.40;99.90
814;DHT22;389;48.710;9.392;2023-12-07T01:26:24;3.40;99.90
814;DHT22;389;48.710;9.392;2023-12-07T01:28:49;3.40;99.90
814;DHT22;389;48.710;9.392;2023-12-07T01:31:15;3.40;99.90
814;DHT22;389;48.710;9.392;2023-12-07T01:33:42;3.40;99.90
814;DHT22;389;48.710;9.392;2023-12-07T01:36:08;3.50;99.90
814;DHT22;389;48.710;9.392;2023-12-07T01:38:34;3.50;99.90
814;DHT22;389;48.710;9.392;2023-12-07T01:40:59;3.50;99.90
814;DHT22;389;48.710;9.392;2023-12-07T01:43:25;3.50;99.90
814;DHT22;389;48.710;9.392;2023-12-07T01:45:52;3.60;99.90
814;DHT22;389;48.710;9.392;2023-12-07T01:48:20;3.60;99.90
814;DHT22;389;48.710;9.392;2023-12-07T01:50:47;3.60;99.90
814;DHT22;389;48.710;9.392;2023-12-07T01:53:13;3.60;99.90
814;DHT22;389;48.710;9.392;2023-12-07T01:55:40;3.60;99.90
814;DHT22;389;48.710;9.392;2023-12-07T01:58:06;3.60;99.90
814;DHT22;389;48.710;9.392;2023-12-07T02:00:33;3.70;99.90
814;DHT22;389;48.710;9.392;2023-12-07T02:02:59;3.70;99.90
814;DHT22;389;48.710;9.392;2023-12-07T02:05:25;3.70;99.90
814;DHT22;389;48.710;9.392;2023-12-07T02:07:51;3.70;99.90
814;DHT22;389;48.710;9.392;2023-12-07T02:10:17;3.70;99.90
814;DHT22;389;48.710;9.392;2023-12-07T02:12:44;3.60;99.90
814;DHT22;389;48.710;9.392;2023-12-07T02:15:10;3.60;99.90
814;DHT22;389;48.710;9.392;2023-12-07T02:23:35;3.50;99.90
814;DHT22;389;48.710;9.392;2023-12-07T02:26:03;3.50;99.90
814;DHT22;389;48.710;9.392;2023-12-07T02:28:29;3.50;99.90
814;DHT22;389;48.710;9.392;2023-12-07T02:30:55;3.50;99.90
814;DHT22;389;48.710;9.392;2023-12-07T02:33:21;3.50;99.90
814;DHT22;389;48.710;9.392;2023-12-07T02:35:46;3.50;99.90
814;DHT22;389;48.710;9.392;2023-12-07T02:38:12;3.50;99.90
814;DHT22;389;48.710;9.392;2023-12-07T02:40:39;3.50;99.90
814;DHT22;389;48.710;9.392;2023-12-07T02:43:06;3.50;99.90
814;DHT22;389;48.710;9.392;2023-12-07T02:45:33;3.50;99.90
814;DHT22;389;48.710;9.392;2023-12-07T02:47:59;3.50;99.90
814;DHT22;389;48.710;9.392;2023-12-07T02:50:25;3.50;99.90
814;DHT22;389;48.710;9.392;2023-12-07T02:52:50;3.50;99.90
814;DHT22;389;48.710;9.392;2023-12-07T02:55:16;3.50;99.90
814;DHT22;389;48.710;9.392;2023-12-07T02:57:41;3.50;99.90
814;DHT22;389;48.710;9.392;2023-12-07T03:00:07;3.40;99.90
814;DHT22;389;48.710;9.392;2023-12-07T03:02:38;3.40;99.90
814;DHT22;389;48.710;9.392;2023-12-07T03:05:04;3.40;99.90
814;DHT22;389;48.710;9.392;2023-12-07T03:07:30;3.40;99.90
814;DHT22;389;48.710;9.392;2023-12-07T03:09:55;3.40;99.90
814;DHT22;389;48.710;9.392;2023-12-07T03:12:21;3.30;99.90
814;DHT22;389;48.710;9.392;2023-12-07T03:14:47;3.30;99.90
814;DHT22;389;48.710;9.392;2023-12-07T03:17:13;3.20;99.90
814;DHT22;389;48.710;9.392;2023-12-07T03:19:39;3.20;99.90
814;DHT22;389;48.710;9.392;2023-12-07T03:22:05;3.10;99.90
814;DHT22;389;48.710;9.392;2023-12-07T03:24:37;3.10;99.90
814;DHT22;389;48.710;9.392;2023-12-07T03:27:04;3.00;99.90
814;DHT22;389;48.710;9.392;2023-12-07T03:29:31;2.90;99.90
814;DHT22;389;48.710;9.392;2023-12-07T03:31:57;2.80;99.90
814;DHT22;389;48.710;9.392;2023-12-07T03:34:23;2.70;99.90
814;DHT22;389;48.710;9.392;2023-12-07T03:36:48;2.60;99.90
814;DHT22;389;48.710;9.392;2023-12-07T03:39:15;2.50;99.90
814;DHT22;389;48.710;9.392;2023-12-07T03:41:44;2.40;99.90
814;DHT22;389;48.710;9.392;2023-12-07T03:44:10;2.20;99.90
814;DHT22;389;48.710;9.392;2023-12-07T03:46:36;2.20;99.90
814;DHT22;389;48.710;9.392;2023-12-07T03:49:02;2.10;99.90
814;DHT22;389;48.710;9.392;2023-12-07T03:51:28;2.00;99.90
814;DHT22;389;48.710;9.392;2023-12-07T03:53:56;1.90;99.90
814;DHT22;389;48.710;9.392;2023-12-07T03:56:26;1.80;99.90
814;DHT22;389;48.710;9.392;2023-12-07T03:58:52;1.70;99.90
814;DHT22;389;48.710;9.392;2023-12-07T04:01:21;1.60;99.90
814;DHT22;389;48.710;9.392;2023-12-07T04:03:48;1.60;99.90
814;DHT22;389;48.710;9.392;2023-12-07T04:06:14;1.50;99.90
814;DHT22;389;48.710;9.392;2023-12-07T04:08:39;1.50;99.90
814;DHT22;389;48.710;9.392;2023-12-07T04:11:05;1.50;99.90
814;DHT22;389;48.710;9.392;2023-12-07T04:13:31;1.50;99.90
814;DHT22;389;48.710;9.392;2023-12-07T04:15:56;1.50;99.90
814;DHT22;389;48.710;9.392;2023-12-07T04:18:22;1.40;99.90
814;DHT22;389;48.710;9.392;2023-12-07T04:20:47;1.40;99.90
814;DHT22;389;48.710;9.392;2023-12-07T04:23:13;1.40;99.90
814;DHT22;389;48.710;9.392;2023-12-07T04:25:38;1.30;99.90
814;DHT22;389;48.710;9.392;2023-12-07T04:28:04;1.30;99.90
814;DHT22;389;48.710;9.392;2023-12-07T04:30:29;1.30;99.90
814;DHT22;389;48.710;9.392;2023-12-07T04:32:55;1.20;99.90
814;DHT22;389;48.710;9.392;2023-12-07T04:35:21;1.30;99.90
814;DHT22;389;48.710;9.392;2023-12-07T04:37:47;1.30;99.90
814;DHT22;389;48.710;9.392;2023-12-07T04:40:12;1.30;99.90
814;DHT22;389;48.710;9.392;2023-12-07T04:42:38;1.40;99.90
814;DHT22;389;48.710;9.392;2023-12-07T04:45:04;1.40;99.90
814;DHT22;389;48.710;9.392;2023-12-07T04:47:29;1.50;99.90
814;DHT22;389;48.710;9.392;2023-12-07T04:49:55;1.60;99.90
814;DHT22;389;48.710;9.392;2023-12-07T04:52:20;1.60;99.90
814;DHT22;389;48.710;9.392;2023-12-07T04:54:46;1.70;99.90
814;DHT22;389;48.710;9.392;2023-12-07T04:57:11;1.70;99.90
814;DHT22;389;48.710;9.392;2023-12-07T04:59:37;1.80;99.90
814;DHT22;389;48.710;9.392;2023-12-07T05:02:03;1.80;99.90
814;DHT22;389;48.710;9.392;2023-12-07T05:04:28;1.90;99.90
814;DHT22;389;48.710;9.392;2023-12-07T05:06:54;1.90;99.90
814;DHT22;389;48.710;9.392;2023-12-07T05:09:19;1.90;99.90
814;DHT22;389;48.710;9.392;2023-12-07T05:11:47;2.00;99.90
814;DHT22;389;48.710;9.392;2023-12-07T05:14:12;2.00;99.90
814;DHT22;389;48.710;9.392;2023-12-07T05:16:38;2.10;99.90
814;DHT22;389;48.710;9.392;2023-12-07T05:19:03;2.10;99.90
814;DHT22;389;48.710;9.392;2023-12-07T05:21:29;2.10;99.90
814;DHT22;389;48.710;9.392;2023-12-07T05:23:54;2.10;99.90
814;DHT22;389;48.710;9.392;2023-12-07T05:26:20;2.10;99.90
814;DHT22;389;48.710;9.392;2023-12-07T05:28:46;2.10;99.90
814;DHT22;389;48.710;9.392;2023-12-07T05:31:19;2.10;99.90
814;DHT22;389;48.710;9.392;2023-12-07T05:33:45;2.00;99.90
814;DHT22;389;48.710;9.392;2023-12-07T05:36:10;1.90;99.90
814;DHT22;389;48.710;9.392;2023-12-07T05:38:37;1.90;99.90
814;DHT22;389;48.710;9.392;2023-12-07T05:41:03;1.80;99.90
814;DHT22;389;48.710;9.392;2023-12-07T05:43:28;1.70;99.90
814;DHT22;389;48.710;9.392;2023-12-07T05:45:54;1.60;99.90
814;DHT22;389;48.710;9.392;2023-12-07T05:48:19;1.50;99.90
814;DHT22;389;48.710;9.392;2023-12-07T05:50:45;1.40;99.90
814;DHT22;389;48.710;9.392;2023-12-07T05:53:10;1.30;99.90
814;DHT22;389;48.710;9.392;2023-12-07T05:55:38;1.20;99.90
814;DHT22;389;48.710;9.392;2023-12-07T05:58:04;1.10;99.90
814;DHT22;389;48.710;9.392;2023-12-07T06:00:29;1.00;99.90
814;DHT22;389;48.710;9.392;2023-12-07T06:02:55;0.90;99.90
814;DHT22;389;48.710;9.392;2023-12-07T06:05:20;0.80;99.90
814;DHT22;389;48.710;9.392;2023-12-07T06:07:46;0.80;99.90
814;DHT22;389;48.710;9.392;2023-12-07T06:10:12;0.70;99.90
814;DHT22;389;48.710;9.392;2023-12-07T06:12:37;0.60;99.90
814;DHT22;389;48.710;9.392;2023-12-07T06:15:04;0.60;99.90
814;DHT22;389;48.710;9.392;2023-12-07T06:17:32;0.50;99.90
814;DHT22;389;48.710;9.392;2023-12-07T06:19:59;0.50;99.90
814;DHT22;389;48.710;9.392;2023-12-07T06:22:24;0.40;99.90
814;DHT22;389;48.710;9.392;2023-12-07T06:24:50;0.40;99.90
814;DHT22;389;48.710;9.392;2023-12-07T06:27:15;0.30;99.90
814;DHT22;389;48.710;9.392;2023-12-07T06:29:41;0.30;99.90
814;DHT22;389;48.710;9.392;2023-12-07T06:32:06;0.20;99.90
814;DHT22;389;48.710;9.392;2023-12-07T06:34:32;0.10;99.90
814;DHT22;389;48.710;9.392;2023-12-07T06:36:58;0.10;99.90
814;DHT22;389;48.710;9.392;2023-12-07T06:39:23;0.00;99.90
814;DHT22;389;48.710;9.392;2023-12-07T06:41:49;0.00;99.90
814;DHT22;389;48.710;9.392;2023-12-07T06:44:14;0.00;99.90
814;DHT22;389;48.710;9.392;2023-12-07T06:46:40;-0.10;99.90
814;DHT22;389;48.710;9.392;2023-12-07T06:49:05;-0.10;99.90
814;DHT22;389;48.710;9.392;2023-12-07T06:51:31;-0.20;99.90
814;DHT22;389;48.710;9.392;2023-12-07T06:53:57;-0.20;99.90
814;DHT22;389;48.710;9.392;2023-12-07T06:56:22;-0.20;99.90
814;DHT22;389;48.710;9.392;2023-12-07T06:58:48;-0.30;99.90
814;DHT22;389;48.710;9.392;2023-12-07T07:01:13;-0.30;99.90
814;DHT22;389;48.710;9.392;2023-12-07T07:03:39;-0.30;99.90
814;DHT22;389;48.710;9.392;2023-12-07T07:06:05;-0.30;99.90
814;DHT22;389;48.710;9.392;2023-12-07T07:08:30;-0.30;99.90
814;DHT22;389;48.710;9.392;2023-12-07T07:10:56;-0.30;99.90
814;DHT22;389;48.710;9.392;2023-12-07T07:13:22;-0.40;99.90
814;DHT22;389;48.710;9.392;2023-12-07T07:15:47;-0.40;99.90
814;DHT22;389;48.710;9.392;2023-12-07T07:18:15;-0.40;99.90
814;DHT22;389;48.710;9.392;2023-12-07T07:20:41;-0.40;99.90
814;DHT22;389;48.710;9.392;2023-12-07T07:23:07;-0.40;99.90
814;DHT22;389;48.710;9.392;2023-12-07T07:25:33;-0.50;99.90
814;DHT22;389;48.710;9.392;2023-12-07T07:28:00;-0.40;99.90
814;DHT22;389;48.710;9.392;2023-12-07T07:30:25;-0.40;99.90
814;DHT22;389;48.710;9.392;2023-12-07T07:32:51;-0.40;99.90
814;DHT22;389;48.710;9.392;2023-12-07T07:35:17;-0.40;99.90
814;DHT22;389;48.710;9.392;2023-12-07T07:37:43;-0.40;99.90
814;DHT22;389;48.710;9.392;2023-12-07T07:40:09;-0.40;99.90
814;DHT22;389;48.710;9.392;2023-12-07T07:42:37;-0.40;99.90
814;DHT22;389;48.710;9.392;2023-12-07T07:45:04;-0.40;99.90
814;DHT22;389;48.710;9.392;2023-12-07T07:47:30;-0.40;99.90
814;DHT22;389;48.710;9.392;2023-12-07T07:49:56;-0.40;99.90
814;DHT22;389;48.710;9.392;2023-12-07T07:52:23;-0.40;99.90
814;DHT22;389;48.710;9.392;2023-12-07T07:54:49;-0.30;99.90
814;DHT22;389;48.710;9.392;2023-12-07T07:57:14;-0.30;99.90
814;DHT22;389;48.710;9.392;2023-12-07T07:59:40;-0.20;99.90
814;DHT22;389;48.710;9.392;2023-12-07T08:02:05;-0.20;99.90
814;DHT22;389;48.710;9.392;2023-12-07T08:04:31;-0.10;99.90
814;DHT22;389;48.710;9.392;2023-12-07T08:06:57;0.00;99.90
814;DHT22;389;48.710;9.392;2023-12-07T08:09:23;0.00;99.90
814;DHT22;389;48.710;9.392;2023-12-07T08:11:48;0.10;99.90
814;DHT22;389;48.710;9.392;2023-12-07T08:14:14;0.20;99.90
814;DHT22;389;48.710;9.392;2023-12-07T08:16:44;0.30;99.90
814;DHT22;389;48.710;9.392;2023-12-07T08:19:09;0.40;99.90
814;DHT22;389;48.710;9.392;2023-12-07T08:21:35;0.50;99.90
814;DHT22;389;48.710;9.392;2023-12-07T08:24:00;0.50;99.90
814;DHT22;389;48.710;9.392;2023-12-07T08:26:26;0.60;99.90
814;DHT22;389;48.710;9.392;2023-12-07T08:28:53;0.60;99.90
814;DHT22;389;48.710;9.392;2023-12-07T08:31:19;0.60;99.90
814;DHT22;389;48.710;9.392;2023-12-07T08:33:45;0.70;99.90
814;DHT22;389;48.710;9.392;2023-12-07T08:36:11;0.70;99.90
814;DHT22;389;48.710;9.392;2023-12-07T08:38:36;0.70;99.90
814;DHT22;389;48.710;9.392;2023-12-07T08:41:02;0.70;99.90
814;DHT22;389;48.710;9.392;2023-12-07T08:43:28;0.80;99.90
814;DHT22;389;48.710;9.392;2023-12-07T08:45:55;0.80;99.90
814;DHT22;389;48.710;9.392;2023-12-07T08:48:21;0.90;99.90
814;DHT22;389;48.710;9.392;2023-12-07T08:50:47;0.90;99.90
814;DHT22;389;48.710;9.392;2023-12-07T08:53:13;1.00;99.90
814;DHT22;389;48.710;9.392;2023-12-07T08:55:38;1.10;99.90
814;DHT22;389;48.710;9.392;2023-12-07T08:58:05;1.10;99.90
814;DHT22;389;48.710;9.392;2023-12-07T09:00:34;1.10;99.90
814;DHT22;389;48.710;9.392;2023-12-07T09:03:00;1.20;99.90
814;DHT22;389;48.710;9.392;2023-12-07T09:05:27;1.30;99.90
814;DHT22;389;48.710;9.392;2023-12-07T09:07:53;1.30;99.90
814;DHT22;389;48.710;9.392;2023-12-07T09:10:19;1.40;99.90
814;DHT22;389;48.710;9.392;2023-12-07T09:12:45;1.50;99.90
814;DHT22;389;48.710;9.392;2023-12-07T09:15:11;1.60;99.90
814;DHT22;389;48.710;9.392;2023-12-07T09:17:38;1.70;99.90
814;DHT22;389;48.710;9.392;2023-12-07T09:20:07;1.80;99.90
814;DHT22;389;48.710;9.392;2023-12-07T09:22:42;1.90;99.90
814;DHT22;389;48.710;9.392;2023-12-07T09:25:08;1.90;99.90
814;DHT22;389;48.710;9.392;2023-12-07T09:27:34;2.00;99.90
814;DHT22;389;48.710;9.392;2023-12-07T09:30:01;2.10;99.90
814;DHT22;389;48.710;9.392;2023-12-07T09:32:27;2.10;99.90
814;DHT22;389;48.710;9.392;2023-12-07T09:34:53;2.10;99.90
814;DHT22;389;48.710;9.392;2023-12-07T09:37:19;2.10;99.90
814;DHT22;389;48.710;9.392;2023-12-07T09:39:45;2.20;99.90
814;DHT22;389;48.710;9.392;2023-12-07T09:42:10;2.20;99.90
814;DHT22;389;48.710;9.392;2023-12-07T09:44:36;2.30;99.90
814;DHT22;389;48.710;9.392;2023-12-07T09:47:02;2.40;99.90
814;DHT22;389;48.710;9.392;2023-12-07T09:49:27;2.40;99.90
814;DHT22;389;48.710;9.392;2023-12-07T09:51:56;2.40;99.90
814;DHT22;389;48.710;9.392;2023-12-07T09:54:23;2.40;99.90
814;DHT22;389;48.710;9.392;2023-12-07T09:56:50;2.40;99.90
814;DHT22;389;48.710;9.392;2023-12-07T09:59:18;2.40;99.90
814;DHT22;389;48.710;9.392;2023-12-07T10:01:44;2.50;99.90
814;DHT22;389;48.710;9.392;2023-12-07T10:04:22;2.60;99.90
814;DHT22;389;48.710;9.392;2023-12-07T10:06:51;2.60;99.90
814;DHT22;389;48.710;9.392;2023-12-07T10:09:18;2.70;99.90
814;DHT22;389;48.710;9.392;2023-12-07T10:11:44;2.70;99.90
814;DHT22;389;48.710;9.392;2023-12-07T10:14:10;2.80;99.90
814;DHT22;389;48.710;9.392;2023-12-07T10:16:36;2.80;99.90
814;DHT22;389;48.710;9.392;2023-12-07T10:19:13;2.90;99.90
814;DHT22;389;48.710;9.392;2023-12-07T10:21:40;3.00;99.90
814;DHT22;389;48.710;9.392;2023-12-07T10:24:06;3.10;99.90
814;DHT22;389;48.710;9.392;2023-12-07T10:26:32;3.20;99.90
814;DHT22;389;48.710;9.392;2023-12-07T10:28:57;3.30;99.90
814;DHT22;389;48.710;9.392;2023-12-07T10:31:25;3.40;99.90
814;DHT22;389;48.710;9.392;2023-12-07T10:33:51;3.50;99.90
814;DHT22;389;48.710;9.392;2023-12-07T10:36:17;3.60;99.90
814;DHT22;389;48.710;9.392;2023-12-07T10:38:42;3.70;99.90
814;DHT22;389;48.710;9.392;2023-12-07T10:41:12;3.70;99.90
814;DHT22;389;48.710;9.392;2023-12-07T10:43:42;3.80;99.90
814;DHT22;389;48.710;9.392;2023-12-07T10:46:09;3.90;99.90
814;DHT22;389;48.710;9.392;2023-12-07T10:48:35;3.90;99.90
814;DHT22;389;48.710;9.392;2023-12-07T10:51:05;4.00;99.90
814;DHT22;389;48.710;9.392;2023-12-07T10:53:37;4.00;99.90
814;DHT22;389;48.710;9.392;2023-12-07T10:56:11;4.20;99.90
814;DHT22;389;48.710;9.392;2023-12-07T10:58:37;4.20;99.90
814;DHT22;389;48.710;9.392;2023-12-07T11:01:04;4.30;99.90
814;DHT22;389;48.710;9.392;2023-12-07T11:03:32;4.40;99.90
814;DHT22;389;48.710;9.392;2023-12-07T11:05:58;4.50;99.90
814;DHT22;389;48.710;9.392;2023-12-07T11:08:50;4.50;99.90
814;DHT22;389;48.710;9.392;2023-12-07T11:14:02;4.60;99.90
814;DHT22;389;48.710;9.392;2023-12-07T11:16:41;4.70;99.90
814;DHT22;389;48.710;9.392;2023-12-07T11:21:57;4.90;99.90
814;DHT22;389;48.710;9.392;2023-12-07T11:24:23;5.00;99.90
814;DHT22;389;48.710;9.392;2023-12-07T11:26:52;5.00;99.90
814;DHT22;389;48.710;9.392;2023-12-07T11:29:23;5.10;99.70
814;DHT22;389;48.710;9.392;2023-12-07T11:31:49;5.10;99.60
814;DHT22;389;48.710;9.392;2023-12-07T11:34:37;5.20;99.20
814;DHT22;389;48.710;9.392;2023-12-07T11:37:04;5.20;96.50
814;DHT22;389;48.710;9.392;2023-12-07T11:39:39;5.30;94.60
814;DHT22;389;48.710;9.392;2023-12-07T11:42:14;5.40;93.90
814;DHT22;389;48.710;9.392;2023-12-07T11:44:41;5.50;94.00
814;DHT22;389;48.710;9.392;2023-12-07T11:47:08;5.50;93.70
814;DHT22;389;48.710;9.392;2023-12-07T11:49:34;5.70;93.80
814;DHT22;389;48.710;9.392;2023-12-07T11:52:01;5.70;93.50
814;DHT22;389;48.710;9.392;2023-12-07T11:54:27;5.70;93.00
814;DHT22;389;48.710;9.392;2023-12-07T11:56:54;5.80;92.80
814;DHT22;389;48.710;9.392;2023-12-07T11:59:19;5.90;92.30
814;DHT22;389;48.710;9.392;2023-12-07T12:01:49;5.90;91.80
814;DHT22;389;48.710;9.392;2023-12-07T12:04:15;6.00;91.50
814;DHT22;389;48.710;9.392;2023-12-07T12:06:43;6.00;91.20
814;DHT22;389;48.710;9.392;2023-12-07T12:09:09;6.10;91.20
814;DHT22;389;48.710;9.392;2023-12-07T12:11:35;6.10;90.40
814;DHT22;389;48.710;9.392;2023-12-07T12:14:01;6.30;90.40
814;DHT22;389;48.710;9.392;2023-12-07T12:16:27;6.20;90.30
814;DHT22;389;48.710;9.392;2023-12-07T12:18:52;6.30;90.30
814;DHT22;389;48.710;9.392;2023-12-07T12:21:18;6.30;90.40
814;DHT22;389;48.710;9.392;2023-12-07T12:23:47;6.30;90.30
814;DHT22;389;48.710;9.392;2023-12-07T12:26:13;6.30;90.80
814;DHT22;389;48.710;9.392;2023-12-07T12:28:39;6.30;90.50
814;DHT22;389;48.710;9.392;2023-12-07T12:31:09;6.30;90.60
814;DHT22;389;48.710;9.392;2023-12-07T12:33:37;6.30;90.70
814;DHT22;389;48.710;9.392;2023-12-07T12:36:04;6.30;90.50
814;DHT22;389;48.710;9.392;2023-12-07T12:38:32;6.30;90.40
814;DHT22;389;48.710;9.392;2023-12-07T12:40:58;6.30;90.50
814;DHT22;389;48.710;9.392;2023-12-07T12:43:23;6.30;90.30
814;DHT22;389;48.710;9.392;2023-12-07T12:45:49;6.30;90.40
814;DHT22;389;48.710;9.392;2023-12-07T12:48:15;6.30;90.10
814;DHT22;389;48.710;9.392;2023-12-07T12:50:41;6.40;90.20
814;DHT22;389;48.710;9.392;2023-12-07T12:53:08;6.40;89.90
814;DHT22;389;48.710;9.392;2023-12-07T12:55:37;6.40;89.40
814;DHT22;389;48.710;9.392;2023-12-07T12:58:05;6.40;89.00
814;DHT22;389;48.710;9.392;2023-12-07T13:00:31;6.40;88.70
814;DHT22;389;48.710;9.392;2023-12-07T13:03:00;6.40;89.10
814;DHT22;389;48.710;9.392;2023-12-07T13:05:26;6.50;87.40
814;DHT22;389;48.710;9.392;2023-12-07T13:07:52;6.40;84.40
814;DHT22;389;48.710;9.392;2023-12-07T13:10:18;6.40;82.00
814;DHT22;389;48.710;9.392;2023-12-07T13:12:44;6.40;81.80
814;DHT22;389;48.710;9.392;2023-12-07T13:15:11;6.50;80.30
814;DHT22;389;48.710;9.392;2023-12-07T13:17:37;6.60;79.20
814;DHT22;389;48.710;9.392;2023-12-07T13:20:05;6.50;77.90
814;DHT22;389;48.710;9.392;2023-12-07T13:22:32;6.60;76.20
814;DHT22;389;48.710;9.392;2023-12-07T13:24:57;6.60;75.70
814;DHT22;389;48.710;9.392;2023-12-07T13:27:23;6.60;74.70
814;DHT22;389;48.710;9.392;2023-12-07T13:29:49;6.60;74.20
814;DHT22;389;48.710;9.392;2023-12-07T13:32:15;6.60;74.10
814;DHT22;389;48.710;9.392;2023-12-07T13:34:41;6.60;74.00
814;DHT22;389;48.710;9.392;2023-12-07T13:37:06;6.60;73.80
814;DHT22;389;48.710;9.392;2023-12-07T13:39:32;6.60;72.90
814;DHT22;389;48.710;9.392;2023-12-07T13:41:58;6.50;71.90
814;DHT22;389;48.710;9.392;2023-12-07T13:44:24;6.50;72.50
814;DHT22;389;48.710;9.392;2023-12-07T13:46:49;6.50;72.70
814;DHT22;389;48.710;9.392;2023-12-07T13:49:15;6.40;72.80
814;DHT22;389;48.710;9.392;2023-12-07T13:51:41;6.30;73.30
814;DHT22;389;48.710;9.392;2023-12-07T13:54:07;6.30;73.40
814;DHT22;389;48.710;9.392;2023-12-07T13:56:36;6.30;73.20
814;DHT22;389;48.710;9.392;2023-12-07T13:59:02;6.20;72.80
814;DHT22;389;48.710;9.392;2023-12-07T14:01:28;6.10;72.60
814;DHT22;389;48.710;9.392;2023-12-07T14:03:53;6.10;72.90
814;DHT22;389;48.710;9.392;2023-12-07T14:06:22;6.00;72.80
814;DHT22;389;48.710;9.392;2023-12-07T14:08:51;6.10;72.60
814;DHT22;389;48.710;9.392;2023-12-07T14:11:18;6.00;72.70
814;DHT22;389;48.710;9.392;2023-12-07T14:13:44;6.00;72.70
814;DHT22;389;48.710;9.392;2023-12-07T14:16:12;6.00;73.10
814;DHT22;389;48.710;9.392;2023-12-07T14:18:37;6.00;73.00
814;DHT22;389;48.710;9.392;2023-12-07T14:21:03;6.00;72.20
814;DHT22;389;48.710;9.392;2023-12-07T14:23:29;6.00;71.10
814;DHT22;389;48.710;9.392;2023-12-07T14:25:54;6.00;71.00
814;DHT22;389;48.710;9.392;2023-12-07T14:28:24;6.00;71.40
814;DHT22;389;48.710;9.392;2023-12-07T14:30:49;6.00;71.80
814;DHT22;389;48.710;9.392;2023-12-07T14:33:15;6.00;72.00
814;DHT22;389;48.710;9.392;2023-12-07T14:35:40;6.10;72.40
814;DHT22;389;48.710;9.392;2023-12-07T14:38:06;5.90;72.60
814;DHT22;389;48.710;9.392;2023-12-07T14:40:32;5.80;72.80
814;DHT22;389;48.710;9.392;2023-12-07T14:42:57;5.80;72.70
814;DHT22;389;48.710;9.392;2023-12-07T14:45:23;5.70;72.80
814;DHT22;389;48.710;9.392;2023-12-07T14:47:48;5.70;73.70
814;DHT22;389;48.710;9.392;2023-12-07T14:50:14;5.60;74.30
814;DHT22;389;48.710;9.392;2023-12-07T14:52:40;5.50;74.90
814;DHT22;389;48.710;9.392;2023-12-07T14:55:06;5.40;75.30
814;DHT22;389;48.710;9.392;2023-12-07T14:57:31;5.30;75.70
814;DHT22;389;48.710;9.392;2023-12-07T14:59:57;5.10;76.40
814;DHT22;389;48.710;9.392;2023-12-07T15:02:24;5.00;77.50
814;DHT22;389;48.710;9.392;2023-12-07T15:04:50;4.80;77.10
814;DHT22;389;48.710;9.392;2023-12-07T15:07:15;4.70;77.40
814;DHT22;389;48.710;9.392;2023-12-07T15:09:42;4.60;77.60
814;DHT22;389;48.710;9.392;2023-12-07T15:12:07;4.50;77.90
814;DHT22;389;48.710;9.392;2023-12-07T15:14:33;4.30;77.80
814;DHT22;389;48.710;9.392;2023-12-07T15:16:59;4.20;78.60
814;DHT22;389;48.710;9.392;2023-12-07T15:19:24;4.10;78.80
814;DHT22;389;48.710;9.392;2023-12-07T15:21:50;4.00;79.00
814;DHT22;389;48.710;9.392;2023-12-07T15:24:16;3.90;79.20
814;DHT22;389;48.710;9.392;2023-12-07T15:26:42;3.80;79.50
814;DHT22;389;48.710;9.392;2023-12-07T15:29:09;3.70;79.90
814;DHT22;389;48.710;9.392;2023-12-07T15:31:34;3.60;80.20
814;DHT22;389;48.710;9.392;2023-12-07T15:34:00;3.50;80.60
814;DHT22;389;48.710;9.392;2023-12-07T15:36:25;3.40;81.10
814;DHT22;389;48.710;9.392;2023-12-07T15:38:51;3.30;81.40
814;DHT22;389;48.710;9.392;2023-12-07T15:41:16;3.20;81.40
814;DHT22;389;48.710;9.392;2023-12-07T15:43:59;3.20;81.80
814;DHT22;389;48.710;9.392;2023-12-07T15:46:24;3.10;82.30
814;DHT22;389;48.710;9.392;2023-12-07T15:48:50;3.10;83.30
814;DHT22;389;48.710;9.392;2023-12-07T15:51:16;3.10;83.00
814;DHT22;389;48.710;9.392;2023-12-07T15:53:41;3.00;83.20
814;DHT22;389;48.710;9.392;2023-12-07T15:56:07;3.00;84.00
814;DHT22;389;48.710;9.392;2023-12-07T15:58:33;2.90;84.30
814;DHT22;389;48.710;9.392;2023-12-07T16:00:58;2.90;84.90
814;DHT22;389;48.710;9.392;2023-12-07T16:03:24;2.90;85.50
814;DHT22;389;48.710;9.392;2023-12-07T16:05:51;2.80;85.80
814;DHT22;389;48.710;9.392;2023-12-07T16:08:16;2.80;86.30
814;DHT22;389;48.710;9.392;2023-12-07T16:10:42;2.80;86.70
814;DHT22;389;48.710;9.392;2023-12-07T16:13:08;2.70;86.80
814;DHT22;389;48.710;9.392;2023-12-07T16:15:33;2.70;87.20
814;DHT22;389;48.710;9.392;2023-12-07T16:17:59;2.60;87.60
814;DHT22;389;48.710;9.392;2023-12-07T16:20:24;2.60;87.90
814;DHT22;389;48.710;9.392;2023-12-07T16:22:50;2.60;88.20
814;DHT22;389;48.710;9.392;2023-12-07T16:25:16;2.60;88.60
814;DHT22;389;48.710;9.392;2023-12-07T16:27:41;2.60;88.80
814;DHT22;389;48.710;9.392;2023-12-07T16:30:07;2.60;89.00
814;DHT22;389;48.710;9.392;2023-12-07T16:32:35;2.60;89.30
814;DHT22;389;48.710;9.392;2023-12-07T16:35:01;2.50;89.50
814;DHT22;389;48.710;9.392;2023-12-07T16:37:28;2.50;89.80
814;DHT22;389;48.710;9.392;2023-12-07T16:39:53;2.50;90.00
814;DHT22;389;48.710;9.392;2023-12-07T16:42:19;2.50;90.10
814;DHT22;389;48.710;9.392;2023-12-07T16:44:44;2.40;90.20
814;DHT22;389;48.710;9.392;2023-12-07T16:47:10;2.40;90.60
814;DHT22;389;48.710;9.392;2023-12-07T16:49:36;2.30;90.30
814;DHT22;389;48.710;9.392;2023-12-07T16:52:01;2.30;90.50
814;DHT22;389;48.710;9.392;2023-12-07T16:54:27;2.20;90.60
814;DHT22;389;48.710;9.392;2023-12-07T16:56:53;2.20;90.70